Urjupinsk, Russia
Current Conditions -  °F | °C
As of 9:00 PM on Thursday 18 Dec 2014 (Local Time) from UUOO Reporting Station
Scattered Clouds Scattered Clouds  
Wind Chill: 28°   Ceiling: Unl
Heat Index: 28°   Visibility: 6mi
Dew Point: 27°   Wind: 0mph
Humidity: 93%   Direction: NA
Pressure: 29.91"   Gusts: NA
Location:  50.78°N, 42°E
Report Text: UUOO 181800Z 00000MPS 9000 SCT022 M02/M03 Q1013 NOSIG RMK30390145
Loading
Personal Weather Stations






























Interactive Weather Map New forecast layout! Learn more

10-Day Weather Forecast

Advertisements
Track Severe Weather on mobile